Time;durP1;ratioP1;P1;durP2;ratioP2;P2;SDS_P1;SDS_P2;PMS_P1;PMS_P2;Temp;Humidity;BMP_temperature;BMP_pressure;BME280_temperature;BME280_humidity;BME280_pressure;Samples;Min_cycle;Max_cycle;Signal;HPM_P1;HPM_P2
2023/08/25 00:02:15;;;;;;;5.65;3.20;;;21.30;99.90;;;;;;5027107;28;20061;-59
2023/08/25 00:04:42;;;;;;;3.80;3.00;;;21.20;99.90;;;;;;5030868;28;20621;-59
2023/08/25 00:07:08;;;;;;;3.95;2.83;;;21.20;99.90;;;;;;5032007;28;20033;-58
2023/08/25 00:09:33;;;;;;;4.82;2.97;;;21.20;99.90;;;;;;5030783;28;20037;-59
2023/08/25 00:11:59;;;;;;;4.80;3.42;;;21.20;99.90;;;;;;5034884;28;20060;-58
2023/08/25 00:14:25;;;;;;;4.43;3.53;;;21.20;99.90;;;;;;5036455;28;20033;-57
2023/08/25 00:16:51;;;;;;;2.92;2.67;;;21.20;99.90;;;;;;5024635;28;20504;-56
2023/08/25 00:19:17;;;;;;;5.25;2.80;;;21.10;99.90;;;;;;5028077;28;20041;-58
2023/08/25 00:21:45;;;;;;;3.95;2.70;;;21.20;99.90;;;;;;5029822;28;20065;-57
2023/08/25 00:24:10;;;;;;;6.47;2.60;;;21.10;99.90;;;;;;5030918;28;20030;-57
2023/08/25 00:26:37;;;;;;;3.03;2.08;;;21.10;99.90;;;;;;5034504;28;20028;-59
2023/08/25 00:29:03;;;;;;;4.07;2.10;;;21.20;99.90;;;;;;5031496;28;20037;-57
2023/08/25 00:31:28;;;;;;;2.67;2.33;;;21.10;99.90;;;;;;5028412;28;20583;-58
2023/08/25 00:33:54;;;;;;;3.55;2.20;;;21.10;99.90;;;;;;5026864;28;20034;-59
2023/08/25 00:36:20;;;;;;;2.75;2.20;;;21.00;99.90;;;;;;5030173;28;20041;-59
2023/08/25 00:38:46;;;;;;;3.35;1.90;;;20.90;99.90;;;;;;5027002;28;20104;-58
2023/08/25 00:41:11;;;;;;;4.32;2.08;;;20.80;99.90;;;;;;5030002;28;20030;-58
2023/08/25 00:43:39;;;;;;;3.95;2.33;;;20.80;99.90;;;;;;5029408;28;20037;-57
2023/08/25 00:46:05;;;;;;;2.25;2.03;;;20.70;99.90;;;;;;5024844;28;20167;-56
2023/08/25 00:48:30;;;;;;;3.45;2.10;;;20.60;99.90;;;;;;5029977;28;20154;-58
2023/08/25 00:50:57;;;;;;;3.35;2.15;;;20.60;99.90;;;;;;5025474;28;20033;-59
2023/08/25 00:53:24;;;;;;;1.63;1.40;;;20.60;99.90;;;;;;5027206;28;20040;-58
2023/08/25 00:55:50;;;;;;;3.88;1.70;;;20.60;99.90;;;;;;5030620;28;20394;-57
2023/08/25 00:58:16;;;;;;;6.70;1.90;;;20.60;99.90;;;;;;5029752;28;20032;-59
2023/08/25 01:00:44;;;;;;;3.92;1.92;;;20.60;99.90;;;;;;5031717;28;20555;-57
2023/08/25 01:03:10;;;;;;;6.10;1.88;;;20.60;99.90;;;;;;5032978;28;20449;-57
2023/08/25 01:05:36;;;;;;;1.80;1.60;;;20.50;99.90;;;;;;5032125;28;20393;-58
2023/08/25 01:08:05;;;;;;;2.40;2.20;;;20.50;99.90;;;;;;5030331;28;20030;-60
2023/08/25 01:10:50;;;;;;;5.18;2.63;;;20.50;99.90;;;;;;5029219;28;20565;-56
2023/08/25 01:13:26;;;;;;;3.42;2.00;;;20.50;99.90;;;;;;5032870;28;20033;-56
2023/08/25 01:15:54;;;;;;;3.60;1.90;;;20.30;99.90;;;;;;5030380;28;20517;-59
2023/08/25 01:18:29;;;;;;;5.63;2.10;;;20.20;99.90;;;;;;5049755;28;20041;-58
2023/08/25 01:20:56;;;;;;;3.03;1.90;;;20.20;99.90;;;;;;5028358;28;20502;-57
2023/08/25 01:23:31;;;;;;;3.72;2.22;;;20.10;99.90;;;;;;5025691;28;20045;-59
2023/08/25 01:25:57;;;;;;;1.92;1.58;;;20.00;99.90;;;;;;5028930;28;20040;-59
2023/08/25 01:28:25;;;;;;;3.25;2.00;;;20.00;99.90;;;;;;5030366;28;20090;-57
2023/08/25 01:30:54;;;;;;;2.85;2.22;;;20.00;99.90;;;;;;5029511;28;20032;-59
2023/08/25 01:33:21;;;;;;;1.98;1.70;;;19.90;99.90;;;;;;5027010;28;20029;-58
2023/08/25 01:36:10;;;;;;;3.15;2.10;;;19.90;99.90;;;;;;5030644;28;20041;-55
2023/08/25 01:38:40;;;;;;;3.38;1.60;;;19.90;99.90;;;;;;5028722;28;20034;-60
2023/08/25 01:41:16;;;;;;;2.47;1.63;;;19.90;99.90;;;;;;5029559;28;20112;-58
2023/08/25 01:43:47;;;;;;;2.88;2.03;;;19.90;99.90;;;;;;5027270;28;20018;-57
2023/08/25 01:46:15;;;;;;;3.88;2.00;;;19.90;99.90;;;;;;5023494;28;20053;-57
2023/08/25 01:48:43;;;;;;;3.13;1.77;;;19.80;99.90;;;;;;5030139;28;20030;-58
2023/08/25 01:51:10;;;;;;;4.43;2.13;;;19.80;99.90;;;;;;5024498;28;20389;-58
2023/08/25 01:53:36;;;;;;;2.38;2.03;;;19.70;99.90;;;;;;5021587;28;20014;-60
2023/08/25 01:56:02;;;;;;;11.80;2.17;;;19.70;99.90;;;;;;5024580;28;20098;-58
2023/08/25 01:58:28;;;;;;;3.53;2.08;;;19.70;99.90;;;;;;5026468;28;20045;-57
2023/08/25 02:00:54;;;;;;;4.53;2.40;;;19.50;99.90;;;;;;5029567;28;20033;-55
2023/08/25 02:03:22;;;;;;;2.75;1.98;;;19.40;99.90;;;;;;5032709;28;20068;-58
2023/08/25 02:05:48;;;;;;;2.33;1.85;;;19.30;99.90;;;;;;5026273;28;20025;-58
2023/08/25 02:08:14;;;;;;;3.67;2.67;;;19.10;99.90;;;;;;5029220;28;20038;-58
2023/08/25 02:10:39;;;;;;;4.50;2.78;;;19.00;99.90;;;;;;5024815;28;20030;-56
2023/08/25 02:13:05;;;;;;;4.35;2.45;;;18.90;99.90;;;;;;5022852;28;20030;-56
2023/08/25 02:15:30;;;;;;;4.38;2.53;;;18.80;99.90;;;;;;5027173;28;20025;-59
2023/08/25 02:17:56;;;;;;;3.88;2.20;;;18.70;99.90;;;;;;5027991;28;20026;-57
2023/08/25 02:20:22;;;;;;;3.25;2.35;;;18.70;99.90;;;;;;5023165;28;20145;-59
2023/08/25 02:22:48;;;;;;;5.15;2.47;;;18.70;99.90;;;;;;5015453;28;20040;-57
2023/08/25 02:25:13;;;;;;;4.70;2.83;;;18.70;99.90;;;;;;5023162;28;20034;-57
2023/08/25 02:27:39;;;;;;;1999.90;233.80;;;18.60;99.90;;;;;;5023226;28;20360;-56
2023/08/25 02:30:06;;;;;;;6.75;5.95;;;18.50;99.90;;;;;;5025367;28;20026;-56
2023/08/25 02:32:31;;;;;;;4.03;2.03;;;18.50;99.90;;;;;;5027183;28;20021;-59
2023/08/25 02:34:57;;;;;;;1999.90;999.90;;;18.50;99.90;;;;;;5027562;28;20040;-59
2023/08/25 02:37:23;;;;;;;3.13;2.75;;;18.50;99.90;;;;;;5020024;28;20033;-59
2023/08/25 02:39:48;;;;;;;71.78;62.03;;;18.60;99.90;;;;;;5027397;28;20053;-59
2023/08/25 02:42:14;;;;;;;1999.90;999.90;;;18.60;99.90;;;;;;5025124;28;20422;-59
2023/08/25 02:44:40;;;;;;;45.85;10.32;;;18.60;99.90;;;;;;5028711;28;20056;-59
2023/08/25 02:47:05;;;;;;;899.17;143.75;;;18.60;99.90;;;;;;5025707;28;20054;-58
2023/08/25 02:49:31;;;;;;;921.05;186.00;;;18.70;99.90;;;;;;5025562;28;20048;-58
2023/08/25 02:51:57;;;;;;;2.72;2.33;;;18.70;99.90;;;;;;5027259;28;20022;-57
2023/08/25 02:54:25;;;;;;;1134.45;126.43;;;18.70;99.90;;;;;;5025770;28;20030;-57
2023/08/25 02:56:51;;;;;;;1999.90;999.90;;;18.70;99.90;;;;;;5026793;28;20030;-58
2023/08/25 02:59:16;;;;;;;153.57;23.02;;;18.70;99.90;;;;;;5026786;28;20031;-59
2023/08/25 03:01:43;;;;;;;1999.90;999.90;;;18.70;99.90;;;;;;5026056;28;20030;-58
2023/08/25 03:04:08;;;;;;;11.23;5.93;;;18.70;99.90;;;;;;5026976;28;20508;-57
2023/08/25 03:06:34;;;;;;;62.80;21.55;;;18.70;99.90;;;;;;5032450;28;20029;-57
2023/08/25 03:09:00;;;;;;;3.70;2.38;;;18.60;99.90;;;;;;5027263;28;20100;-57
2023/08/25 03:11:26;;;;;;;1999.90;999.90;;;18.60;99.90;;;;;;5029948;28;20030;-58
2023/08/25 03:13:51;;;;;;;3.15;2.35;;;18.50;99.90;;;;;;5026699;28;20248;-55
2023/08/25 03:16:17;;;;;;;5.45;2.70;;;18.40;99.90;;;;;;5023774;28;20049;-56
2023/08/25 03:18:43;;;;;;;3.00;2.67;;;18.40;99.90;;;;;;5026298;28;20021;-57
2023/08/25 03:21:08;;;;;;;5.55;2.47;;;18.40;99.90;;;;;;5027892;28;20059;-57
2023/08/25 03:23:35;;;;;;;3.80;2.10;;;18.40;99.90;;;;;;5021950;28;20577;-56
2023/08/25 03:26:02;;;;;;;3.97;2.13;;;18.40;99.90;;;;;;5027997;28;20032;-58
2023/08/25 03:28:28;;;;;;;7.22;2.13;;;18.40;99.90;;;;;;5023842;28;20509;-59
2023/08/25 03:30:54;;;;;;;4.10;2.00;;;18.40;99.90;;;;;;5027455;28;20041;-57
2023/08/25 03:33:19;;;;;;;297.00;27.05;;;18.50;99.90;;;;;;5017530;28;20045;-57
2023/08/25 03:35:45;;;;;;;3.20;2.05;;;18.50;99.90;;;;;;5022507;28;20033;-58
2023/08/25 03:38:10;;;;;;;8.13;2.20;;;18.50;99.90;;;;;;5026903;28;20049;-56
2023/08/25 03:40:36;;;;;;;4.03;2.17;;;18.60;99.90;;;;;;5028074;28;20112;-54
2023/08/25 03:43:02;;;;;;;2.92;1.55;;;18.50;99.90;;;;;;5030231;28;20037;-57
2023/08/25 03:45:27;;;;;;;2.92;2.00;;;18.60;99.90;;;;;;5031823;28;20100;-57
2023/08/25 03:47:53;;;;;;;1999.90;999.90;;;18.50;99.90;;;;;;5028100;28;20033;-55
2023/08/25 03:50:20;;;;;;;1999.90;999.90;;;18.50;99.90;;;;;;5031019;28;20612;-58
2023/08/25 03:52:49;;;;;;;105.20;27.75;;;18.50;99.90;;;;;;5028617;28;20522;-57
2023/08/25 03:55:14;;;;;;;1.63;1.15;;;18.40;99.90;;;;;;5030996;28;20045;-57
2023/08/25 03:57:40;;;;;;;1.52;1.00;;;18.40;99.90;;;;;;5031676;28;20795;-61
2023/08/25 04:00:07;;;;;;;3.25;1.98;;;18.40;99.90;;;;;;5032550;28;20045;-60
2023/08/25 04:02:33;;;;;;;5.85;1.90;;;18.40;99.90;;;;;;5033108;28;20022;-58
2023/08/25 04:04:59;;;;;;;2.60;2.05;;;18.30;99.90;;;;;;5034139;28;20052;-60
2023/08/25 04:07:24;;;;;;;67.22;63.88;;;18.30;99.90;;;;;;5032400;28;20052;-59
2023/08/25 04:09:50;;;;;;;82.15;78.05;;;18.30;99.90;;;;;;5032621;28;20057;-60
2023/08/25 04:12:16;;;;;;;1999.90;999.90;;;18.20;99.90;;;;;;5034376;28;20040;-60
2023/08/25 04:14:41;;;;;;;45.63;44.03;;;18.20;99.90;;;;;;5032352;28;20497;-61
2023/08/25 04:17:07;;;;;;;22.83;21.63;;;18.10;99.90;;;;;;5030135;28;20452;-58
2023/08/25 04:19:32;;;;;;;18.20;17.33;;;18.10;99.90;;;;;;5031745;28;20393;-59
2023/08/25 04:22:01;;;;;;;69.70;65.22;;;18.10;99.90;;;;;;5026437;28;20034;-59
2023/08/25 04:24:26;;;;;;;559.97;305.77;;;18.10;99.90;;;;;;5028136;28;20030;-58
2023/08/25 04:26:53;;;;;;;1999.90;999.90;;;18.10;99.90;;;;;;5030180;28;20018;-58
2023/08/25 04:29:19;;;;;;;709.58;330.55;;;18.10;99.90;;;;;;5029565;28;20037;-59
2023/08/25 04:31:44;;;;;;;290.58;55.53;;;18.20;99.90;;;;;;5031661;28;20052;-60
2023/08/25 04:34:11;;;;;;;679.70;109.65;;;18.20;99.90;;;;;;5032431;28;20030;-60
2023/08/25 04:36:37;;;;;;;334.50;85.18;;;18.20;99.90;;;;;;5030944;28;20026;-61
2023/08/25 04:39:03;;;;;;;433.60;198.85;;;18.10;99.90;;;;;;5029146;28;20516;-58
2023/08/25 04:41:29;;;;;;;1999.90;407.95;;;18.10;99.90;;;;;;5025929;28;20016;-62
2023/08/25 04:43:54;;;;;;;1999.90;999.90;;;18.10;99.90;;;;;;5025391;28;20037;-61
2023/08/25 04:46:20;;;;;;;1999.90;999.90;;;18.10;99.90;;;;;;5035811;28;20060;-61
2023/08/25 04:48:46;;;;;;;95.47;5.03;;;18.10;99.90;;;;;;5026951;28;20034;-60
2023/08/25 04:51:12;;;;;;;1.38;0.90;;;18.10;99.90;;;;;;5020343;28;20040;-62
2023/08/25 04:53:38;;;;;;;3.20;1.63;;;18.20;99.90;;;;;;5021560;28;20490;-59
2023/08/25 04:56:04;;;;;;;3.35;1.58;;;18.20;99.90;;;;;;5026822;28;20044;-61
2023/08/25 04:58:30;;;;;;;2.17;1.70;;;18.20;99.90;;;;;;5028113;28;20109;-61
2023/08/25 05:00:55;;;;;;;5.00;1.92;;;18.20;99.90;;;;;;5029321;28;20116;-59
2023/08/25 05:03:21;;;;;;;3.78;2.13;;;18.30;99.90;;;;;;5025087;28;20755;-57
2023/08/25 05:05:47;;;;;;;3.65;1.95;;;18.30;99.90;;;;;;5028721;28;20029;-58
2023/08/25 05:08:12;;;;;;;4.03;2.10;;;18.30;99.90;;;;;;5030827;28;20018;-59
2023/08/25 05:10:38;;;;;;;1.98;1.70;;;18.30;99.90;;;;;;5027937;28;20049;-55
2023/08/25 05:13:04;;;;;;;1.98;1.20;;;18.30;99.90;;;;;;5027154;28;20446;-58
2023/08/25 05:15:29;;;;;;;2.47;1.08;;;18.40;99.90;;;;;;5028325;28;20110;-56
2023/08/25 05:17:55;;;;;;;3.45;1.67;;;18.40;99.90;;;;;;5029058;28;20489;-58
2023/08/25 05:20:21;;;;;;;2.42;2.13;;;18.40;99.90;;;;;;5027460;28;20045;-59
2023/08/25 05:22:48;;;;;;;1549.30;765.42;;;18.40;99.90;;;;;;5025193;28;20033;-58
2023/08/25 05:25:14;;;;;;;27.60;12.98;;;18.40;99.90;;;;;;5024969;28;20022;-58
2023/08/25 05:27:40;;;;;;;23.55;10.30;;;18.40;99.90;;;;;;5025104;28;20389;-57
2023/08/25 05:30:06;;;;;;;0.77;0.70;;;18.40;99.90;;;;;;5027646;28;20022;-59
2023/08/25 05:32:32;;;;;;;1511.30;760.10;;;18.50;99.90;;;;;;5028880;28;20022;-58
2023/08/25 05:34:58;;;;;;;1999.90;999.90;;;18.60;99.90;;;;;;5030452;28;20559;-56
2023/08/25 05:37:23;;;;;;;1999.90;999.90;;;18.60;99.90;;;;;;5025520;28;20030;-57
2023/08/25 05:39:49;;;;;;;4.72;4.53;;;18.70;99.90;;;;;;5027686;28;20029;-58
2023/08/25 05:42:15;;;;;;;86.43;14.90;;;18.80;99.90;;;;;;5025208;28;20040;-57
2023/08/25 05:44:41;;;;;;;1.40;1.20;;;18.80;99.90;;;;;;5027168;28;20110;-58
2023/08/25 05:47:07;;;;;;;3.08;1.60;;;18.90;99.90;;;;;;5028441;28;20144;-59
2023/08/25 05:49:32;;;;;;;1.55;1.00;;;19.00;99.90;;;;;;5027443;28;20051;-60
2023/08/25 05:51:58;;;;;;;1.95;1.20;;;19.10;99.90;;;;;;5028734;28;20042;-59
2023/08/25 05:54:23;;;;;;;2.80;1.38;;;19.20;99.90;;;;;;5028625;28;20059;-59
2023/08/25 05:56:49;;;;;;;2.60;2.40;;;19.30;99.90;;;;;;5026244;28;20053;-59
2023/08/25 05:59:15;;;;;;;1.40;1.10;;;19.50;99.90;;;;;;5030534;28;20037;-57
2023/08/25 06:01:41;;;;;;;1.88;1.10;;;19.50;99.90;;;;;;5022096;28;20092;-61
2023/08/25 06:04:06;;;;;;;1.95;1.40;;;19.60;99.90;;;;;;5022711;28;20501;-61
2023/08/25 06:06:33;;;;;;;2.38;1.10;;;19.60;99.90;;;;;;5024836;28;20690;-60
2023/08/25 06:08:58;;;;;;;6.85;5.28;;;19.70;99.90;;;;;;5029418;28;20053;-59
2023/08/25 06:11:24;;;;;;;4.97;1.10;;;19.80;99.90;;;;;;5024820;28;20610;-57
2023/08/25 06:13:50;;;;;;;1.02;0.75;;;19.80;99.90;;;;;;5027039;28;20021;-61
2023/08/25 06:16:16;;;;;;;2.42;1.10;;;20.00;99.90;;;;;;5024563;28;20056;-62
2023/08/25 06:18:42;;;;;;;1.13;1.00;;;20.10;99.90;;;;;;5021840;28;20083;-59
2023/08/25 06:21:09;;;;;;;1.15;1.08;;;20.20;99.90;;;;;;5027314;28;20140;-61
2023/08/25 06:23:34;;;;;;;0.98;0.77;;;20.20;99.90;;;;;;5025888;28;20279;-60
2023/08/25 06:26:00;;;;;;;5.43;0.80;;;20.30;99.90;;;;;;5028604;28;20041;-60
2023/08/25 06:28:26;;;;;;;0.70;0.70;;;20.40;99.90;;;;;;5030359;28;20047;-61
2023/08/25 06:30:51;;;;;;;1.02;0.88;;;20.40;99.90;;;;;;5023900;28;20397;-60
2023/08/25 06:33:17;;;;;;;6.60;0.70;;;20.50;99.90;;;;;;5029315;28;20021;-58
2023/08/25 06:35:43;;;;;;;5.03;0.68;;;20.60;99.90;;;;;;5029367;28;20505;-60
2023/08/25 06:38:09;;;;;;;0.93;0.80;;;20.70;99.90;;;;;;5028476;28;20104;-58
2023/08/25 06:40:35;;;;;;;0.68;0.57;;;20.80;99.90;;;;;;5029189;28;20108;-61
2023/08/25 06:43:04;;;;;;;1.63;0.77;;;20.90;99.90;;;;;;5031917;28;20037;-60
2023/08/25 06:45:30;;;;;;;1.73;0.85;;;21.00;99.90;;;;;;5029568;28;20037;-60
2023/08/25 06:47:57;;;;;;;1.13;0.70;;;21.00;99.90;;;;;;5030504;28;20087;-62
2023/08/25 06:50:23;;;;;;;1.17;0.90;;;21.10;99.90;;;;;;5032380;28;20528;-59
2023/08/25 06:52:49;;;;;;;1.25;1.00;;;21.20;99.90;;;;;;5023363;28;20440;-58
2023/08/25 06:55:18;;;;;;;0.88;0.75;;;21.30;99.90;;;;;;5024876;28;20050;-57
2023/08/25 06:57:47;;;;;;;2.80;1.00;;;21.40;99.90;;;;;;5024846;28;20021;-58
2023/08/25 07:00:14;;;;;;;13.15;12.65;;;21.50;99.90;;;;;;5028878;28;20028;-57
2023/08/25 07:02:41;;;;;;;27.58;1.45;;;21.70;99.90;;;;;;5029828;28;20025;-59
2023/08/25 07:05:07;;;;;;;0.75;0.75;;;21.90;99.90;;;;;;5026527;28;20037;-58
2023/08/25 07:07:35;;;;;;;1.17;1.00;;;22.10;99.90;;;;;;5029881;28;20047;-60
2023/08/25 07:10:01;;;;;;;1.25;0.70;;;22.40;99.90;;;;;;5026784;28;20034;-60
2023/08/25 07:12:26;;;;;;;1.42;0.75;;;22.70;99.90;;;;;;5021754;28;20026;-59
2023/08/25 07:14:53;;;;;;;1.33;0.80;;;23.00;99.90;;;;;;5030649;28;20061;-59
2023/08/25 07:17:19;;;;;;;1.38;1.10;;;23.20;99.90;;;;;;5039345;28;20029;-59
2023/08/25 07:19:45;;;;;;;2.08;0.80;;;23.40;99.90;;;;;;5020376;28;20042;-60
2023/08/25 07:22:11;;;;;;;4.25;1.08;;;23.70;99.90;;;;;;5021518;28;20041;-59
2023/08/25 07:24:36;;;;;;;1.70;1.10;;;23.90;99.90;;;;;;5018463;28;20029;-58
2023/08/25 07:27:02;;;;;;;1.85;1.10;;;23.90;99.90;;;;;;5027948;28;20143;-57
2023/08/25 07:29:27;;;;;;;1.13;0.90;;;24.00;99.90;;;;;;5026401;28;20104;-59
2023/08/25 07:31:53;;;;;;;0.52;0.52;;;24.20;99.90;;;;;;5028110;28;20087;-58
2023/08/25 07:34:19;;;;;;;0.95;0.95;;;24.30;99.90;;;;;;5028211;28;20037;-58
2023/08/25 07:36:45;;;;;;;0.82;0.82;;;24.50;99.90;;;;;;5023561;28;20725;-57
2023/08/25 07:39:11;;;;;;;7.70;1.70;;;24.50;99.90;;;;;;5026401;28;20496;-58
2023/08/25 07:41:36;;;;;;;0.70;0.70;;;24.60;99.90;;;;;;5028289;28;20390;-57
2023/08/25 07:44:02;;;;;;;0.32;0.32;;;24.60;99.90;;;;;;5026510;28;20030;-58
2023/08/25 07:46:28;;;;;;;1.25;1.17;;;24.60;99.90;;;;;;5026827;28;20025;-60
2023/08/25 07:48:54;;;;;;;0.50;0.50;;;24.60;99.90;;;;;;5022747;28;20048;-59
2023/08/25 07:51:20;;;;;;;1.65;0.50;;;24.60;99.90;;;;;;5027725;28;20037;-56
2023/08/25 07:53:46;;;;;;;1.73;0.40;;;24.60;99.90;;;;;;5026371;28;20080;-59
2023/08/25 07:56:11;;;;;;;1.75;0.30;;;24.70;99.90;;;;;;5022863;28;20045;-59
2023/08/25 07:58:37;;;;;;;0.40;0.40;;;24.80;99.90;;;;;;5027385;28;20061;-61
2023/08/25 08:01:03;;;;;;;1.67;0.75;;;24.80;99.90;;;;;;5026341;28;20034;-60
2023/08/25 08:03:29;;;;;;;0.80;0.70;;;24.90;99.90;;;;;;5025888;28;20120;-59
2023/08/25 08:05:55;;;;;;;1.15;0.38;;;25.00;99.90;;;;;;5024207;28;20609;-59
2023/08/25 08:08:20;;;;;;;0.63;0.50;;;25.00;99.90;;;;;;5023109;28;20076;-60
2023/08/25 08:10:46;;;;;;;1.65;1.55;;;25.10;99.90;;;;;;5027329;28;20033;-60
2023/08/25 08:13:12;;;;;;;1.63;0.75;;;25.20;99.90;;;;;;5025506;28;20034;-60
2023/08/25 08:15:38;;;;;;;46.33;4.18;;;25.30;99.90;;;;;;5023962;28;20129;-59
2023/08/25 08:18:04;;;;;;;577.45;295.65;;;25.40;99.90;;;;;;5027894;28;20033;-58
2023/08/25 08:20:33;;;;;;;116.93;99.30;;;25.40;99.90;;;;;;5028173;28;20038;-60
2023/08/25 08:22:59;;;;;;;1999.90;999.90;;;25.30;99.90;;;;;;5025884;28;20402;-59
2023/08/25 08:25:25;;;;;;;12.38;7.60;;;25.30;99.90;;;;;;5028760;28;20164;-59
2023/08/25 08:27:51;;;;;;;3.80;1.15;;;25.30;99.90;;;;;;5026180;28;20117;-60
2023/08/25 08:30:19;;;;;;;1.50;1.40;;;25.20;99.90;;;;;;5030977;28;20025;-58
2023/08/25 08:32:46;;;;;;;1.23;0.47;;;25.30;99.90;;;;;;5027126;28;20063;-58
2023/08/25 08:35:12;;;;;;;2.17;1.02;;;25.30;99.90;;;;;;5027683;28;20033;-59
2023/08/25 08:37:39;;;;;;;1.65;1.02;;;25.20;99.90;;;;;;5027191;28;20386;-58
2023/08/25 08:40:06;;;;;;;1.23;1.00;;;25.00;99.90;;;;;;5030425;28;20029;-60
2023/08/25 08:42:37;;;;;;;3.00;1.45;;;24.90;99.90;;;;;;5026809;28;20029;-59
2023/08/25 08:45:06;;;;;;;0.63;0.63;;;24.80;99.90;;;;;;5028928;28;20673;-59
2023/08/25 08:47:32;;;;;;;1.00;0.60;;;24.80;99.90;;;;;;5027830;28;20025;-59
2023/08/25 08:49:59;;;;;;;1.00;0.88;;;24.80;99.90;;;;;;5024770;28;20098;-59
2023/08/25 08:52:27;;;;;;;7.90;0.50;;;24.60;99.90;;;;;;5031049;28;20476;-56
2023/08/25 08:54:53;;;;;;;3.63;0.85;;;24.40;99.90;;;;;;5029850;28;20029;-57
2023/08/25 08:57:19;;;;;;;85.97;4.40;;;24.30;99.90;;;;;;5020371;28;20017;-58
2023/08/25 08:59:44;;;;;;;1.88;1.00;;;24.20;99.90;;;;;;5022836;28;20682;-59
2023/08/25 09:02:13;;;;;;;1.85;0.90;;;24.10;99.90;;;;;;5021474;28;20030;-59
2023/08/25 09:04:40;;;;;;;1.17;1.00;;;23.90;99.90;;;;;;5027379;28;20521;-58
2023/08/25 09:07:07;;;;;;;1.83;1.05;;;23.80;99.90;;;;;;5030211;28;20037;-60
2023/08/25 09:09:33;;;;;;;2.42;1.23;;;23.60;99.90;;;;;;5029292;28;20067;-58
2023/08/25 09:11:58;;;;;;;6.22;4.88;;;23.50;99.90;;;;;;5029362;28;20105;-59
2023/08/25 09:14:26;;;;;;;0.80;0.70;;;23.30;99.90;;;;;;5026572;28;20029;-59
2023/08/25 09:16:56;;;;;;;2.88;2.78;;;23.10;99.90;;;;;;5028607;28;20493;-59
2023/08/25 09:19:23;;;;;;;2.07;1.13;;;22.70;99.90;;;;;;5030762;28;20047;-60
2023/08/25 09:21:49;;;;;;;1.40;1.30;;;22.30;99.90;;;;;;5027376;28;20087;-59
2023/08/25 09:24:19;;;;;;;1.40;1.30;;;22.00;99.90;;;;;;5023662;28;20062;-59
2023/08/25 09:26:46;;;;;;;1.00;0.90;;;21.70;99.90;;;;;;5026532;28;20013;-59
2023/08/25 09:29:11;;;;;;;1.23;1.05;;;21.40;99.90;;;;;;5027790;28;20033;-59
2023/08/25 09:31:37;;;;;;;1.52;1.30;;;21.20;99.90;;;;;;5031183;28;20036;-57
2023/08/25 09:34:08;;;;;;;2.38;1.48;;;21.00;99.90;;;;;;5030411;28;20108;-58
2023/08/25 09:36:48;;;;;;;23.08;10.82;;;20.80;99.90;;;;;;5031136;28;20030;-59
2023/08/25 09:39:14;;;;;;;1.70;1.60;;;20.60;99.90;;;;;;5028495;28;20030;-59
2023/08/25 09:41:40;;;;;;;44.33;12.27;;;20.40;99.90;;;;;;5027973;28;20044;-59
2023/08/25 09:44:05;;;;;;;2.47;2.30;;;20.20;99.90;;;;;;5033372;28;20044;-60
2023/08/25 09:46:32;;;;;;;193.93;160.40;;;20.10;99.90;;;;;;5035359;28;20029;-57
2023/08/25 09:49:01;;;;;;;409.20;103.32;;;20.10;99.90;;;;;;5025491;28;20037;-60
2023/08/25 09:51:48;;;;;;;171.65;21.25;;;20.00;99.90;;;;;;5025729;28;20033;-58
2023/08/25 09:54:15;;;;;;;1999.90;999.90;;;20.10;99.90;;;;;;5022360;28;20040;-58
2023/08/25 09:56:45;;;;;;;1999.90;999.90;;;20.20;99.90;;;;;;5027666;28;20033;-58
2023/08/25 09:59:13;;;;;;;121.45;14.10;;;20.40;99.90;;;;;;5030162;28;20037;-57
2023/08/25 10:01:40;;;;;;;147.30;73.50;;;20.60;99.90;;;;;;5029825;28;20038;-59
2023/08/25 10:04:06;;;;;;;39.22;16.92;;;20.80;99.90;;;;;;5031045;28;20053;-59
2023/08/25 10:06:35;;;;;;;0.73;0.60;;;21.00;99.90;;;;;;5027991;28;20489;-58
2023/08/25 10:09:01;;;;;;;7.70;4.60;;;21.10;99.90;;;;;;5033586;28;20036;-61
2023/08/25 10:11:55;;;;;;;132.98;46.85;;;21.30;99.90;;;;;;5025516;28;20104;-58
2023/08/25 10:14:26;;;;;;;93.65;76.70;;;21.50;99.90;;;;;;5031183;28;20033;-59
2023/08/25 10:16:52;;;;;;;118.50;35.15;;;21.60;99.90;;;;;;5020374;28;20042;-59
2023/08/25 10:19:23;;;;;;;31.48;19.08;;;21.60;99.90;;;;;;5021171;28;20037;-58
2023/08/25 10:21:51;;;;;;;1.92;1.83;;;21.90;99.90;;;;;;5023722;28;20048;-58
2023/08/25 10:24:21;;;;;;;1.67;1.52;;;22.10;99.90;;;;;;5027099;28;20034;-58
2023/08/25 10:26:51;;;;;;;33.15;17.20;;;22.30;99.90;;;;;;5027193;28;20074;-58
2023/08/25 10:29:19;;;;;;;77.80;23.10;;;22.40;99.90;;;;;;5028403;28;20030;-58
2023/08/25 10:31:49;;;;;;;1.75;0.70;;;22.50;99.90;;;;;;5026281;28;20026;-58
2023/08/25 10:34:30;;;;;;;0.50;0.40;;;22.50;99.90;;;;;;5030553;28;20041;-58
2023/08/25 10:37:03;;;;;;;0.30;0.30;;;22.50;99.90;;;;;;5027454;28;20437;-59
2023/08/25 10:39:52;;;;;;;4.72;0.60;;;22.50;99.90;;;;;;5027799;28;20021;-57
2023/08/25 10:42:44;;;;;;;0.57;0.35;;;22.40;99.90;;;;;;5029782;28;20045;-58
2023/08/25 10:45:11;;;;;;;0.50;0.50;;;22.40;99.90;;;;;;5026016;28;20063;-58
2023/08/25 10:47:47;;;;;;;0.30;0.30;;;22.40;99.90;;;;;;5029111;28;20072;-58
2023/08/25 10:50:18;;;;;;;3.70;1.20;;;22.60;99.90;;;;;;5028853;28;20033;-59
2023/08/25 10:52:47;;;;;;;0.40;0.30;;;22.70;99.90;;;;;;5028915;28;20382;-59
2023/08/25 10:55:24;;;;;;;0.30;0.30;;;22.90;99.90;;;;;;5024978;28;20039;-60
2023/08/25 10:57:53;;;;;;;0.68;0.40;;;22.90;99.90;;;;;;5022753;28;20322;-59
2023/08/25 11:00:36;;;;;;;0.40;0.30;;;22.90;99.90;;;;;;5025378;28;20461;-58
2023/08/25 11:03:02;;;;;;;0.40;0.38;;;22.90;99.90;;;;;;5027766;28;20079;-60
2023/08/25 11:05:34;;;;;;;1.02;0.25;;;22.80;99.90;;;;;;5028188;28;20036;-59
2023/08/25 11:08:24;;;;;;;1.10;0.30;;;22.80;99.90;;;;;;5025403;28;20069;-58
2023/08/25 11:11:10;;;;;;;0.35;0.35;;;22.80;99.90;;;;;;5024509;28;20053;-59
2023/08/25 11:13:39;;;;;;;0.35;0.35;;;22.90;99.90;;;;;;5027860;28;20048;-60
2023/08/25 11:16:09;;;;;;;2.33;0.63;;;23.00;99.90;;;;;;5023708;28;20037;-57
2023/08/25 11:18:35;;;;;;;0.32;0.30;;;23.10;99.90;;;;;;5020802;28;20060;-58
2023/08/25 11:21:02;;;;;;;0.35;0.30;;;23.30;99.90;;;;;;5024961;28;20061;-59
2023/08/25 11:23:44;;;;;;;0.20;0.20;;;23.40;99.90;;;;;;5025231;28;20440;-61
2023/08/25 11:26:15;;;;;;;0.40;0.40;;;23.50;99.90;;;;;;5021189;28;20026;-58
2023/08/25 11:28:41;;;;;;;0.22;0.22;;;23.80;99.90;;;;;;5021856;28;20026;-60
2023/08/25 11:31:07;;;;;;;0.52;0.35;;;23.90;99.90;;;;;;5019695;28;20030;-58
2023/08/25 11:33:33;;;;;;;1.40;0.93;;;23.90;99.90;;;;;;5024894;28;20029;-59
2023/08/25 11:35:59;;;;;;;1.23;0.50;;;23.80;99.90;;;;;;5027959;28;20066;-59
2023/08/25 11:38:28;;;;;;;0.25;0.25;;;23.70;99.90;;;;;;5027168;28;20033;-58
2023/08/25 11:40:57;;;;;;;0.52;0.30;;;23.80;99.90;;;;;;5024934;28;20029;-58
2023/08/25 11:43:32;;;;;;;1.23;0.50;;;24.00;99.90;;;;;;5022876;28;20033;-60
2023/08/25 11:45:59;;;;;;;81.88;14.88;;;24.20;99.90;;;;;;5023641;28;20036;-60
2023/08/25 11:48:25;;;;;;;0.70;0.70;;;24.30;99.90;;;;;;5027292;28;20094;-57
2023/08/25 11:50:51;;;;;;;1.17;0.75;;;24.30;99.90;;;;;;5027325;28;20557;-57
2023/08/25 11:53:17;;;;;;;0.63;0.60;;;24.30;99.90;;;;;;5021567;28;20099;-59
2023/08/25 11:55:57;;;;;;;0.65;0.57;;;24.10;99.90;;;;;;5019354;28;20034;-59
2023/08/25 11:58:32;;;;;;;0.52;0.47;;;23.90;99.90;;;;;;5021591;28;20033;-57
2023/08/25 12:01:04;;;;;;;0.60;0.60;;;23.60;99.90;;;;;;5029656;28;20049;-59
2023/08/25 12:03:30;;;;;;;0.70;0.60;;;23.50;99.90;;;;;;5029896;28;20842;-59
2023/08/25 12:05:56;;;;;;;1.35;0.82;;;23.50;99.90;;;;;;5033184;28;20033;-57
2023/08/25 12:08:23;;;;;;;0.82;0.80;;;23.40;99.90;;;;;;5030462;28;20073;-59
2023/08/25 12:10:49;;;;;;;0.65;0.65;;;23.30;99.90;;;;;;5030523;28;20494;-60
2023/08/25 12:13:15;;;;;;;0.57;0.57;;;23.20;99.90;;;;;;5029461;28;20042;-58
2023/08/25 12:15:44;;;;;;;0.90;0.75;;;23.20;99.90;;;;;;5030966;28;20833;-57
2023/08/25 12:18:12;;;;;;;3.63;0.60;;;23.20;99.90;;;;;;5031122;28;20559;-58
2023/08/25 12:20:44;;;;;;;0.98;0.50;;;23.10;99.90;;;;;;5032633;28;20044;-60
2023/08/25 12:23:10;;;;;;;1.00;0.70;;;23.00;99.90;;;;;;5026978;28;20829;-56
2023/08/25 12:25:35;;;;;;;0.95;0.85;;;23.00;99.90;;;;;;5028613;28;20034;-59
2023/08/25 12:28:01;;;;;;;0.85;0.85;;;22.90;99.90;;;;;;5025122;28;20025;-58
2023/08/25 12:30:30;;;;;;;0.95;0.70;;;22.80;99.90;;;;;;5030075;28;20041;-60
2023/08/25 12:32:55;;;;;;;1.25;0.43;;;22.70;99.90;;;;;;5028972;28;20064;-57
2023/08/25 12:35:22;;;;;;;1.13;0.65;;;22.60;99.90;;;;;;5029616;28;20065;-59
2023/08/25 12:37:48;;;;;;;1.10;0.40;;;22.50;99.90;;;;;;5035250;28;20025;-57
2023/08/25 12:40:14;;;;;;;1.10;1.00;;;22.50;99.90;;;;;;5037880;28;20050;-57
2023/08/25 12:42:40;;;;;;;0.75;0.70;;;22.50;99.90;;;;;;5034320;28;20567;-58